Time,TemperatureF,DewpointF,PressureIn,WindDirection,WindDirectionDegrees,WindSpeedMPH,WindSpeedGustMPH,Humidity,HourlyPrecipIn,Conditions,Clouds,dailyrainin,SoftwareType,DateUTC
2013-02-21 00:00:00,78.6,75.7,29.94,East,80,12.0,20.0,91,0.00,,,0.00,WeatherDisplay:10.37,2013-02-21 06:00:00,
2013-02-21 00:15:00,78.2,75.4,29.94,ENE,71,12.0,17.0,91,0.00,,,0.00,WeatherDisplay:10.37,2013-02-21 06:15:00,
2013-02-21 00:30:00,78.3,75.8,29.93,East,81,13.0,20.0,92,0.00,,,0.00,WeatherDisplay:10.37,2013-02-21 06:30:00,
2013-02-21 00:45:00,78.3,75.8,29.92,East,80,14.0,18.0,92,0.00,,,0.00,WeatherDisplay:10.37,2013-02-21 06:45:00,
2013-02-21 01:00:00,77.7,75.6,29.92,East,101,9.0,21.0,93,0.01,RA,,0.01,WeatherDisplay:10.37,2013-02-21 07:00:00,
2013-02-21 01:15:00,77.8,75.6,29.91,ESE,107,16.0,21.0,93,0.00,,,0.01,WeatherDisplay:10.37,2013-02-21 07:15:00,
2013-02-21 01:30:00,77.5,75.0,29.91,ESE,103,9.0,18.0,92,0.00,,,0.01,WeatherDisplay:10.37,2013-02-21 07:30:00,
2013-02-21 01:45:00,77.6,75.1,29.90,East,94,10.0,16.0,92,0.00,,,0.01,WeatherDisplay:10.37,2013-02-21 07:45:00,
2013-02-21 02:00:00,77.5,75.0,29.89,East,92,9.0,18.0,92,0.00,,,0.01,WeatherDisplay:10.37,2013-02-21 08:00:00,
2013-02-21 02:15:00,77.5,75.0,29.89,East,86,9.0,18.0,92,0.00,,,0.01,WeatherDisplay:10.37,2013-02-21 08:15:00,
2013-02-21 02:30:00,77.4,74.9,29.88,East,90,6.0,15.0,92,0.00,,,0.01,WeatherDisplay:10.37,2013-02-21 08:30:00,
2013-02-21 02:45:00,77.7,74.9,29.88,East,96,6.0,14.0,91,0.00,,,0.01,WeatherDisplay:10.37,2013-02-21 08:45:00,
2013-02-21 03:00:00,78.5,75.7,29.87,ESE,108,12.0,18.0,91,0.00,,,0.01,WeatherDisplay:10.37,2013-02-21 09:00:00,
2013-02-21 03:15:00,78.9,76.4,29.86,ESE,106,14.0,20.0,92,0.00,,,0.01,WeatherDisplay:10.37,2013-02-21 09:15:00,
2013-02-21 03:30:00,79.1,76.9,29.86,ESE,107,13.0,20.0,93,0.00,,,0.01,WeatherDisplay:10.37,2013-02-21 09:30:00,
2013-02-21 03:45:00,79.0,76.8,29.86,ESE,111,15.0,21.0,93,0.00,,,0.01,WeatherDisplay:10.37,2013-02-21 09:45:00,
2013-02-21 04:00:00,79.2,77.3,29.86,ESE,112,16.0,22.0,94,0.00,,,0.01,WeatherDisplay:10.37,2013-02-21 10:00:00,
2013-02-21 04:15:00,79.1,76.6,29.86,ESE,113,18.0,24.0,92,0.00,,,0.01,WeatherDisplay:10.37,2013-02-21 10:15:00,
2013-02-21 04:30:00,78.7,75.8,29.86,ESE,116,18.0,29.0,91,0.00,,,0.01,WeatherDisplay:10.37,2013-02-21 10:30:00,
2013-02-21 04:45:00,78.5,75.7,29.85,ESE,114,16.0,24.0,91,0.00,,,0.01,WeatherDisplay:10.37,2013-02-21 10:45:00,
2013-02-21 05:00:00,78.9,76.0,29.85,ESE,116,16.0,24.0,91,0.00,,,0.01,WeatherDisplay:10.37,2013-02-21 11:00:00,
2013-02-21 05:15:00,79.2,76.7,29.86,ESE,114,16.0,22.0,92,0.00,,,0.01,WeatherDisplay:10.37,2013-02-21 11:15:00,
2013-02-21 05:30:00,79.2,76.7,29.86,ESE,114,17.0,22.0,92,0.00,,,0.01,WeatherDisplay:10.37,2013-02-21 11:30:00,
2013-02-21 05:45:00,79.3,76.8,29.87,ESE,115,16.0,23.0,92,0.00,,,0.01,WeatherDisplay:10.37,2013-02-21 11:45:00,
2013-02-21 06:00:00,79.4,76.5,29.88,ESE,112,20.0,24.0,91,0.00,,,0.01,WeatherDisplay:10.37,2013-02-21 12:00:00,
2013-02-21 06:15:00,79.4,76.5,29.88,ESE,116,18.0,24.0,91,0.00,,,0.01,WeatherDisplay:10.37,2013-02-21 12:15:00,
2013-02-21 06:30:00,79.5,76.3,29.89,ESE,116,16.0,23.0,90,0.00,,,0.01,WeatherDisplay:10.37,2013-02-21 12:30:00,
2013-02-21 06:45:00,79.8,76.6,29.90,ESE,115,17.0,23.0,90,0.00,,,0.01,WeatherDisplay:10.37,2013-02-21 12:45:00,
2013-02-21 07:00:00,80.2,77.0,29.90,ESE,114,16.0,23.0,90,0.00,,,0.01,WeatherDisplay:10.37,2013-02-21 13:00:00,
2013-02-21 07:15:00,80.7,76.8,29.91,ESE,116,16.0,23.0,88,0.00,,,0.01,WeatherDisplay:10.37,2013-02-21 13:15:00,
2013-02-21 07:30:00,81.2,77.0,29.92,ESE,114,17.0,25.0,87,0.00,,,0.01,WeatherDisplay:10.37,2013-02-21 13:30:00,
2013-02-21 07:45:00,81.5,76.9,29.92,ESE,115,17.0,23.0,86,0.00,,,0.01,WeatherDisplay:10.37,2013-02-21 13:45:00,
2013-02-21 08:00:00,81.2,76.6,29.93,ESE,115,17.0,24.0,86,0.00,,,0.01,WeatherDisplay:10.37,2013-02-21 14:00:00,
2013-02-21 08:15:00,81.9,77.3,29.93,ESE,114,17.0,24.0,86,0.00,,,0.01,WeatherDisplay:10.37,2013-02-21 14:15:00,
2013-02-21 08:30:00,82.3,77.3,29.94,ESE,116,15.0,23.0,85,0.00,,,0.01,WeatherDisplay:10.37,2013-02-21 14:30:00,
2013-02-21 08:45:00,82.6,77.6,29.94,ESE,116,15.0,23.0,85,0.00,,,0.01,WeatherDisplay:10.37,2013-02-21 14:45:00,
2013-02-21 09:00:00,82.7,77.4,29.94,ESE,115,16.0,22.0,84,0.00,CLR,,0.01,WeatherDisplay:10.37,2013-02-21 15:00:00,
2013-02-21 09:15:00,82.8,77.1,29.95,ESE,116,17.0,22.0,83,0.00,CLR,,0.01,WeatherDisplay:10.37,2013-02-21 15:15:00,
2013-02-21 09:30:00,82.9,77.2,29.95,ESE,113,15.0,21.0,83,0.00,CLR,,0.01,WeatherDisplay:10.37,2013-02-21 15:30:00,
2013-02-21 09:45:00,83.1,77.4,29.95,ESE,115,15.0,21.0,83,0.00,CLR,,0.01,WeatherDisplay:10.37,2013-02-21 15:45:00,
2013-02-21 10:00:00,83.4,77.6,29.95,ESE,114,14.0,20.0,83,0.00,CLR,,0.01,WeatherDisplay:10.37,2013-02-21 16:00:00,
2013-02-21 10:15:00,83.6,77.5,29.95,ESE,114,16.0,22.0,82,0.00,CLR,,0.01,WeatherDisplay:10.37,2013-02-21 16:15:00,
2013-02-21 10:30:00,83.5,77.5,29.95,ESE,115,15.0,22.0,82,0.00,CLR,,0.01,WeatherDisplay:10.37,2013-02-21 16:30:00,
2013-02-21 10:45:00,83.5,77.4,29.94,ESE,115,14.0,21.0,82,0.00,CLR,,0.01,WeatherDisplay:10.37,2013-02-21 16:45:00,
2013-02-21 11:00:00,83.6,77.6,29.94,ESE,114,14.0,20.0,82,0.00,CLR,,0.01,WeatherDisplay:10.37,2013-02-21 17:00:00,
2013-02-21 11:15:00,83.4,77.0,29.94,ESE,114,15.0,20.0,81,0.00,CLR,,0.01,WeatherDisplay:10.37,2013-02-21 17:15:00,
2013-02-21 11:30:00,83.3,76.9,29.93,ESE,113,13.0,21.0,81,0.00,CLR,,0.01,WeatherDisplay:10.37,2013-02-21 17:30:00,
2013-02-21 11:45:00,83.3,76.9,29.93,ESE,113,14.0,17.0,81,0.00,CLR,,0.01,WeatherDisplay:10.37,2013-02-21 17:45:00,
2013-02-21 12:00:00,83.3,77.2,29.92,ESE,112,13.0,17.0,82,0.00,CLR,,0.01,WeatherDisplay:10.37,2013-02-21 18:00:00,
2013-02-21 12:15:00,83.1,77.1,29.92,ESE,111,12.0,16.0,82,0.00,CLR,,0.01,WeatherDisplay:10.37,2013-02-21 18:15:00,
2013-02-21 12:30:00,83.1,77.0,29.92,ESE,114,12.0,18.0,82,0.00,CLR,,0.01,WeatherDisplay:10.37,2013-02-21 18:30:00,
2013-02-21 12:45:00,83.0,76.6,29.91,ESE,114,13.0,17.0,81,0.00,CLR,,0.01,WeatherDisplay:10.37,2013-02-21 18:45:00,
2013-02-21 13:00:00,83.2,77.1,29.91,ESE,113,12.0,16.0,82,0.00,CLR,,0.01,WeatherDisplay:10.37,2013-02-21 19:00:00,
2013-02-21 13:15:00,83.0,76.9,29.90,ESE,114,12.0,18.0,82,0.00,CLR,,0.01,WeatherDisplay:10.37,2013-02-21 19:15:00,
2013-02-21 13:30:00,83.1,77.0,29.90,ESE,115,12.0,16.0,82,0.00,CLR,,0.01,WeatherDisplay:10.37,2013-02-21 19:30:00,
2013-02-21 13:45:00,83.0,76.9,29.89,ESE,113,12.0,16.0,82,0.00,CLR,,0.01,WeatherDisplay:10.37,2013-02-21 19:45:00,
2013-02-21 14:00:00,83.0,77.3,29.88,ESE,115,12.0,17.0,83,0.00,CLR,,0.01,WeatherDisplay:10.37,2013-02-21 20:00:00,
2013-02-21 14:15:00,83.0,77.3,29.88,ESE,112,12.0,15.0,83,0.00,CLR,,0.01,WeatherDisplay:10.37,2013-02-21 20:15:00,
2013-02-21 14:30:00,82.8,77.1,29.87,ESE,113,12.0,15.0,83,0.00,CLR,,0.01,WeatherDisplay:10.37,2013-02-21 20:30:00,
2013-02-21 14:45:00,82.8,77.1,29.87,ESE,108,12.0,15.0,83,0.00,CLR,,0.01,WeatherDisplay:10.37,2013-02-21 20:45:00,
2013-02-21 15:00:00,82.9,77.2,29.86,ESE,107,10.0,15.0,83,0.00,CLR,,0.01,WeatherDisplay:10.37,2013-02-21 21:00:00,
2013-02-21 15:15:00,82.6,76.5,29.86,ESE,109,12.0,15.0,82,0.00,CLR,,0.01,WeatherDisplay:10.37,2013-02-21 21:15:00,
2013-02-21 15:30:00,82.6,76.9,29.86,ESE,108,10.0,15.0,83,0.00,CLR,,0.01,WeatherDisplay:10.37,2013-02-21 21:30:00,
2013-02-21 15:45:00,82.5,77.2,29.86,ESE,105,9.0,14.0,84,0.00,CLR,,0.01,WeatherDisplay:10.37,2013-02-21 21:45:00,
2013-02-21 16:00:00,82.4,77.1,29.86,ESE,107,9.0,14.0,84,0.00,CLR,,0.01,WeatherDisplay:10.37,2013-02-21 22:00:00,
2013-02-21 16:15:00,82.6,77.7,29.86,East,94,5.0,12.0,85,0.00,,,0.01,WeatherDisplay:10.37,2013-02-21 22:15:00,
2013-02-21 16:26:00,82.7,77.7,29.86,East,96,5.0,10.0,85,0.00,,,0.01,WeatherDisplay:10.37,2013-02-21 22:26:00,
2013-02-21 16:45:00,82.2,76.9,29.86,East,96,6.0,16.0,84,0.00,,,0.01,WeatherDisplay:10.37,2013-02-21 22:45:00,
2013-02-21 17:00:00,82.1,77.1,29.86,East,99,6.0,13.0,85,0.00,,,0.01,WeatherDisplay:10.37,2013-02-21 23:00:00,
2013-02-21 17:15:00,82.1,77.1,29.87,East,96,6.0,12.0,85,0.00,,,0.01,WeatherDisplay:10.37,2013-02-21 23:15:00,
2013-02-21 17:30:00,81.7,76.8,29.87,East,95,7.0,17.0,85,0.00,,,0.01,WeatherDisplay:10.37,2013-02-21 23:30:00,
2013-02-21 18:00:00,81.6,76.6,29.88,East,94,7.0,14.0,85,0.00,,,0.01,WeatherDisplay:10.37,2013-02-22 00:00:00,
2013-02-21 18:15:00,81.4,76.5,29.88,East,99,7.0,14.0,85,0.00,,,0.01,WeatherDisplay:10.37,2013-02-22 00:15:00,
2013-02-21 18:30:00,81.3,76.4,29.88,East,94,8.0,15.0,85,0.00,,,0.01,WeatherDisplay:10.37,2013-02-22 00:30:00,
2013-02-21 18:45:00,81.2,76.3,29.88,East,91,7.0,16.0,85,0.00,,,0.01,WeatherDisplay:10.37,2013-02-22 00:45:00,
2013-02-21 19:00:00,81.1,76.5,29.89,East,84,13.0,18.0,86,0.00,,,0.01,WeatherDisplay:10.37,2013-02-22 01:00:00,
2013-02-21 19:15:00,80.9,76.3,29.89,East,88,13.0,20.0,86,0.00,,,0.01,WeatherDisplay:10.37,2013-02-22 01:15:00,
2013-02-21 19:30:00,80.7,76.5,29.89,East,87,8.0,18.0,87,0.00,,,0.01,WeatherDisplay:10.37,2013-02-22 01:30:00,
2013-02-21 19:45:00,80.7,76.8,29.89,East,85,12.0,20.0,88,0.00,,,0.01,WeatherDisplay:10.37,2013-02-22 01:45:00,
2013-02-21 20:00:00,80.6,76.7,29.90,East,86,13.0,20.0,88,0.00,,,0.01,WeatherDisplay:10.37,2013-02-22 02:00:00,
2013-02-21 20:15:00,80.5,76.6,29.90,East,91,8.0,21.0,88,0.00,,,0.01,WeatherDisplay:10.37,2013-02-22 02:15:00,
2013-02-21 20:30:00,80.5,77.0,29.90,East,90,15.0,22.0,89,0.00,,,0.01,WeatherDisplay:10.37,2013-02-22 02:30:00,
2013-02-21 20:45:00,80.4,76.5,29.90,East,90,10.0,25.0,88,0.00,,,0.01,WeatherDisplay:10.37,2013-02-22 02:45:00,
2013-02-21 21:00:00,80.4,76.9,29.90,East,93,12.0,23.0,89,0.00,,,0.01,WeatherDisplay:10.37,2013-02-22 03:00:00,
2013-02-21 21:15:00,80.4,76.9,29.90,East,97,9.0,21.0,89,0.00,,,0.01,WeatherDisplay:10.37,2013-02-22 03:15:00,
2013-02-21 21:30:00,80.3,76.8,29.90,East,98,9.0,20.0,89,0.00,,,0.01,WeatherDisplay:10.37,2013-02-22 03:30:00,
2013-02-21 21:45:00,80.3,76.8,29.90,East,100,10.0,18.0,89,0.00,,,0.01,WeatherDisplay:10.37,2013-02-22 03:45:00,
2013-02-21 22:00:00,80.2,76.7,29.90,ESE,105,15.0,21.0,89,0.00,,,0.01,WeatherDisplay:10.37,2013-02-22 04:00:00,
2013-02-21 22:15:00,80.2,77.0,29.91,ESE,106,12.0,23.0,90,0.00,,,0.01,WeatherDisplay:10.37,2013-02-22 04:15:00,
2013-02-21 22:30:00,80.0,76.5,29.90,ESE,107,18.0,24.0,89,0.00,,,0.01,WeatherDisplay:10.37,2013-02-22 04:30:00,
2013-02-21 22:45:00,80.1,76.9,29.90,ESE,107,14.0,21.0,90,0.00,,,0.01,WeatherDisplay:10.37,2013-02-22 04:45:00,
2013-02-21 23:00:00,80.0,76.8,29.90,ESE,109,16.0,23.0,90,0.00,,,0.01,WeatherDisplay:10.37,2013-02-22 05:00:00,
2013-02-21 23:15:00,79.9,76.7,29.89,ESE,108,16.0,23.0,90,0.00,,,0.01,WeatherDisplay:10.37,2013-02-22 05:15:00,
2013-02-21 23:30:00,79.9,76.7,29.89,ESE,110,16.0,23.0,90,0.00,,,0.01,WeatherDisplay:10.37,2013-02-22 05:30:00,
2013-02-21 23:45:00,80.0,77.1,29.89,ESE,111,16.0,24.0,91,0.00,,,0.01,WeatherDisplay:10.37,2013-02-22 05:45:00,